Time;durP1;ratioP1;P1;durP2;ratioP2;P2;SDS_P1;SDS_P2;PMS_P1;PMS_P2;Temp;Humidity;BMP_temperature;BMP_pressure;BME280_temperature;BME280_humidity;BME280_pressure;Samples;Min_cycle;Max_cycle;Signal;HPM_P1;HPM_P2
2022/08/26 00:00:11;;;;;;;3.53;2.30;;;;;;;23.25;nan;100127.09;4958494;28;20615;-86
2022/08/26 00:02:36;;;;;;;3.10;2.50;;;;;;;23.15;nan;100124.22;4957573;28;20277;-84
2022/08/26 00:05:02;;;;;;;4.40;2.90;;;;;;;23.05;nan;100133.78;4959385;28;20035;-84
2022/08/26 00:07:28;;;;;;;3.78;2.70;;;;;;;22.96;nan;100131.69;4970648;28;20042;-85
2022/08/26 00:09:53;;;;;;;3.60;3.03;;;;;;;22.91;nan;100132.44;4967867;28;20251;-85
2022/08/26 00:12:18;;;;;;;4.22;2.97;;;;;;;22.87;nan;100134.78;4954629;28;20065;-85
2022/08/26 00:14:44;;;;;;;5.43;3.60;;;;;;;22.84;nan;100142.53;4964291;28;20043;-86
2022/08/26 00:17:09;;;;;;;3.20;2.90;;;;;;;22.78;nan;100138.09;4969069;28;20286;-85
2022/08/26 00:19:35;;;;;;;6.32;3.70;;;;;;;22.75;nan;100135.91;4973289;28;20851;-84
2022/08/26 00:22:00;;;;;;;6.05;3.70;;;;;;;22.71;nan;100138.25;4968297;28;20073;-84
2022/08/26 00:24:25;;;;;;;5.18;3.60;;;;;;;22.67;nan;100137.94;4970246;28;20040;-85
2022/08/26 00:26:51;;;;;;;6.15;3.60;;;;;;;22.65;nan;100136.53;4972956;28;20034;-84
2022/08/26 00:29:17;;;;;;;5.78;3.90;;;;;;;22.64;nan;100134.88;4963997;28;20080;-85
2022/08/26 00:31:42;;;;;;;5.82;4.00;;;;;;;22.56;nan;100135.28;4963830;28;20046;-85
2022/08/26 00:34:09;;;;;;;4.85;3.45;;;;;;;22.46;nan;100135.91;4966928;28;20415;-86
2022/08/26 00:36:34;;;;;;;6.00;3.38;;;;;;;22.39;nan;100132.53;4970314;28;20046;-85
2022/08/26 00:39:00;;;;;;;3.92;3.15;;;;;;;22.34;nan;100132.44;4969428;28;20039;-85
2022/08/26 00:41:25;;;;;;;4.30;2.90;;;;;;;22.30;nan;100128.56;4969906;28;20035;-85
2022/08/26 00:43:51;;;;;;;4.38;3.88;;;;;;;22.26;nan;100139.00;4972916;28;20102;-85
2022/08/26 00:46:24;;;;;;;6.20;4.93;;;;;;;22.27;nan;100133.38;4972479;28;20039;-85
2022/08/26 00:48:57;;;;;;;5.85;4.20;;;;;;;22.29;nan;100124.25;4971610;28;20043;-85
2022/08/26 00:51:26;;;;;;;6.15;4.45;;;;;;;22.30;nan;100129.38;4971904;28;20027;-83
2022/08/26 00:54:01;;;;;;;6.18;4.78;;;;;;;22.30;nan;100124.00;4974985;28;20035;-84
2022/08/26 00:56:37;;;;;;;4.70;4.15;;;;;;;22.31;nan;100122.13;4972338;28;20168;-85
2022/08/26 00:59:07;;;;;;;4.60;3.65;;;;;;;22.31;nan;100127.50;4966280;28;20099;-85
2022/08/26 01:01:33;;;;;;;5.68;4.57;;;;;;;22.31;nan;100119.41;4970085;28;20126;-84
2022/08/26 01:03:58;;;;;;;8.02;5.00;;;;;;;22.34;nan;100119.78;4971299;28;20031;-83
2022/08/26 01:06:26;;;;;;;9.32;4.97;;;;;;;22.44;nan;100113.78;4966778;28;20046;-83
2022/08/26 01:08:52;;;;;;;6.20;4.85;;;;;;;22.50;nan;100115.50;4969845;28;20144;-84
2022/08/26 01:11:18;;;;;;;8.88;5.03;;;;;;;22.58;nan;100117.00;4969677;28;20061;-85
2022/08/26 01:13:44;;;;;;;7.35;5.30;;;;;;;22.68;nan;100115.28;4971567;28;20039;-84
2022/08/26 01:16:13;;;;;;;8.18;5.45;;;;;;;22.76;nan;100110.56;4969704;28;20042;-84
2022/08/26 01:18:41;;;;;;;6.85;4.72;;;;;;;22.79;nan;100121.69;4954016;28;20039;-85
2022/08/26 01:21:16;;;;;;;6.40;5.07;;;;;;;22.76;nan;100124.84;4959926;28;20038;-83
2022/08/26 01:23:46;;;;;;;5.63;4.30;;;;;;;22.71;nan;100121.25;4963679;28;20239;-83
2022/08/26 01:26:16;;;;;;;5.68;4.50;;;;;;;22.65;nan;100117.66;4959615;28;20080;-84
2022/08/26 01:28:42;;;;;;;5.03;4.23;;;;;;;22.63;nan;100117.91;4963148;28;20399;-84
2022/08/26 01:31:11;;;;;;;6.85;4.70;;;;;;;22.64;nan;100114.16;4963581;28;20042;-84
2022/08/26 01:33:46;;;;;;;5.75;4.57;;;;;;;22.61;nan;100117.31;4962650;28;20047;-85
2022/08/26 01:36:12;;;;;;;6.00;4.63;;;;;;;22.59;nan;100116.75;4965788;28;20035;-84
2022/08/26 01:38:39;;;;;;;7.35;4.32;;;;;;;22.58;nan;100120.50;4968683;28;20084;-84
2022/08/26 01:41:06;;;;;;;5.05;4.43;;;;;;;22.59;nan;100121.31;4967072;28;20165;-84
2022/08/26 01:43:32;;;;;;;6.10;4.25;;;;;;;22.61;nan;100113.81;4968667;28;20035;-84
2022/08/26 01:45:59;;;;;;;5.88;4.20;;;;;;;22.60;nan;100117.56;4963509;28;20101;-84
2022/08/26 01:48:30;;;;;;;4.65;4.07;;;;;;;22.59;nan;100113.22;4968416;28;20041;-84
2022/08/26 01:50:56;;;;;;;5.57;4.20;;;;;;;22.53;nan;100120.41;4967624;28;20456;-85
2022/08/26 01:53:23;;;;;;;5.40;4.13;;;;;;;22.50;nan;100117.38;4963678;28;20031;-84
2022/08/26 01:55:53;;;;;;;5.82;3.67;;;;;;;22.43;nan;100117.53;4964738;28;20049;-84
2022/08/26 01:58:44;;;;;;;4.57;3.43;;;;;;;22.31;nan;100122.13;4965719;28;20048;-84
2022/08/26 02:01:09;;;;;;;5.50;3.90;;;;;;;22.20;nan;100121.91;4963680;28;20050;-83
2022/08/26 02:03:49;;;;;;;4.50;3.30;;;;;;;22.11;nan;100119.81;4966447;28;20286;-85
2022/08/26 02:06:15;;;;;;;4.47;3.45;;;;;;;22.04;nan;100117.25;4962120;28;20064;-84
2022/08/26 02:08:45;;;;;;;4.97;3.97;;;;;;;22.00;nan;100130.38;4968121;28;20587;-85
2022/08/26 02:11:11;;;;;;;6.78;4.07;;;;;;;21.97;nan;100133.53;4965712;28;20038;-84
2022/08/26 02:13:47;;;;;;;4.97;4.22;;;;;;;21.97;nan;100135.41;4966763;28;20130;-84
2022/08/26 02:16:15;;;;;;;7.10;4.70;;;;;;;21.93;nan;100136.91;4964107;28;20035;-84
2022/08/26 02:18:42;;;;;;;6.75;4.30;;;;;;;21.84;nan;100134.59;4967810;28;20034;-84
2022/08/26 02:21:09;;;;;;;4.40;3.35;;;;;;;21.78;nan;100134.72;4960931;28;20042;-84
2022/08/26 02:23:36;;;;;;;5.22;3.60;;;;;;;21.70;nan;100138.59;4965940;28;20038;-84
2022/08/26 02:26:07;;;;;;;5.25;3.47;;;;;;;21.65;nan;100143.03;4967280;28;20110;-84
2022/08/26 02:28:39;;;;;;;4.00;3.47;;;;;;;21.53;nan;100143.03;4966171;28;20050;-85
2022/08/26 02:31:04;;;;;;;3.33;2.75;;;;;;;21.46;nan;100140.47;4960807;28;20026;-84
2022/08/26 02:33:30;;;;;;;4.95;3.65;;;;;;;21.43;nan;100135.56;4969234;28;20094;-84
2022/08/26 02:35:55;;;;;;;4.75;3.60;;;;;;;21.40;nan;100136.84;4970122;28;20035;-84
2022/08/26 02:38:21;;;;;;;5.28;4.00;;;;;;;21.36;nan;100134.81;4967687;28;20138;-84
2022/08/26 02:40:46;;;;;;;4.55;3.20;;;;;;;21.28;nan;100130.56;4971317;28;20451;-84
2022/08/26 02:43:11;;;;;;;4.93;3.80;;;;;;;21.23;nan;100127.75;4967091;28;20033;-85
2022/08/26 02:45:39;;;;;;;6.03;3.70;;;;;;;21.17;nan;100131.41;4966684;28;20059;-83
2022/08/26 02:48:12;;;;;;;5.68;4.20;;;;;;;21.20;nan;100128.22;4955003;28;20528;-84
2022/08/26 02:50:38;;;;;;;7.78;4.80;;;;;;;21.24;nan;100132.09;4967771;28;20047;-83
2022/08/26 02:53:04;;;;;;;8.73;5.35;;;;;;;21.26;nan;100124.63;4969122;28;20510;-84
2022/08/26 02:55:30;;;;;;;6.28;4.60;;;;;;;21.27;nan;100120.88;4964056;28;20040;-84
2022/08/26 02:57:56;;;;;;;6.10;4.20;;;;;;;21.20;nan;100120.97;4971099;28;20035;-85
2022/08/26 03:00:21;;;;;;;5.53;4.68;;;;;;;21.13;nan;100122.97;4962025;28;20515;-84
2022/08/26 03:02:46;;;;;;;4.82;3.90;;;;;;;21.05;nan;100112.56;4969553;28;20200;-85
2022/08/26 03:05:12;;;;;;;4.72;3.60;;;;;;;20.97;nan;100119.09;4967673;28;20051;-85
2022/08/26 03:07:38;;;;;;;8.00;4.60;;;;;;;20.90;nan;100112.97;4967078;28;20154;-84
2022/08/26 03:10:04;;;;;;;4.90;3.88;;;;;;;20.83;nan;100114.94;4965979;28;20027;-84
2022/08/26 03:12:30;;;;;;;5.25;4.20;;;;;;;20.79;nan;100124.53;4963926;28;20154;-84
2022/08/26 03:14:55;;;;;;;5.70;3.55;;;;;;;20.74;nan;100121.72;4969849;28;20475;-84
2022/08/26 03:17:21;;;;;;;5.65;4.22;;;;;;;20.67;nan;100123.66;4965080;28;20035;-85
2022/08/26 03:19:47;;;;;;;5.55;4.60;;;;;;;20.62;nan;100118.13;4969916;28;20047;-84
2022/08/26 03:22:12;;;;;;;5.68;4.22;;;;;;;20.59;nan;100119.41;4967231;28;20070;-84
2022/08/26 03:24:37;;;;;;;4.45;3.58;;;;;;;20.56;nan;100118.00;4962933;28;20106;-85
2022/08/26 03:27:03;;;;;;;4.47;3.50;;;;;;;20.53;nan;100123.81;4962672;28;20031;-84
2022/08/26 03:32:13;;;;;;;4.45;3.55;;;;;;;20.52;nan;100129.38;4964122;28;20045;-85
2022/08/26 03:34:38;;;;;;;4.90;3.97;;;;;;;20.49;nan;100132.53;4954256;28;20043;-84
2022/08/26 03:37:03;;;;;;;4.63;3.63;;;;;;;20.47;nan;100134.63;4953962;28;20504;-85
2022/08/26 03:39:29;;;;;;;3.90;3.30;;;;;;;20.40;nan;100136.56;4963063;28;20087;-84
2022/08/26 03:41:54;;;;;;;4.57;3.42;;;;;;;20.37;nan;100137.84;4969816;28;20074;-85
2022/08/26 03:44:20;;;;;;;5.55;4.05;;;;;;;20.33;nan;100137.50;4972434;28;20028;-85
2022/08/26 03:46:45;;;;;;;9.63;4.57;;;;;;;20.30;nan;100129.06;4955078;28;20051;-85
2022/08/26 03:49:11;;;;;;;6.33;4.90;;;;;;;20.27;nan;100134.88;4954544;28;20180;-85
2022/08/26 03:51:37;;;;;;;8.50;5.37;;;;;;;20.27;nan;100134.88;4954387;28;20661;-85
2022/08/26 03:54:03;;;;;;;6.05;4.90;;;;;;;20.26;nan;100135.91;4954343;28;20375;-84
2022/08/26 03:56:29;;;;;;;7.53;5.45;;;;;;;20.24;nan;100129.97;4961259;28;20039;-83
2022/08/26 03:58:54;;;;;;;8.32;5.68;;;;;;;20.23;nan;100133.69;4966852;28;20434;-84
2022/08/26 04:01:20;;;;;;;6.28;5.32;;;;;;;20.25;nan;100134.28;4961392;28;20039;-83
2022/08/26 04:03:58;;;;;;;6.18;4.68;;;;;;;20.29;nan;100138.16;4961299;28;20512;-82
2022/08/26 04:06:28;;;;;;;6.15;4.85;;;;;;;20.31;nan;100139.59;4963608;28;20035;-82
2022/08/26 04:08:56;;;;;;;6.28;5.05;;;;;;;20.31;nan;100142.28;4962290;28;20031;-82
2022/08/26 04:11:24;;;;;;;4.50;3.80;;;;;;;20.34;nan;100144.50;4973605;28;20033;-82
2022/08/26 04:13:50;;;;;;;5.38;4.50;;;;;;;20.35;nan;100135.41;4966628;28;20038;-82
2022/08/26 04:16:16;;;;;;;6.20;4.50;;;;;;;20.38;nan;100139.50;4958338;28;20518;-82
2022/08/26 04:18:42;;;;;;;9.20;5.40;;;;;;;20.44;nan;100137.78;4971803;28;20093;-83
2022/08/26 04:21:08;;;;;;;8.02;5.50;;;;;;;20.45;nan;100136.72;4964228;28;20031;-83
2022/08/26 04:23:35;;;;;;;5.82;4.63;;;;;;;20.47;nan;100137.31;4968615;28;20088;-82
2022/08/26 04:26:00;;;;;;;4.60;3.85;;;;;;;20.48;nan;100137.09;4970285;28;20078;-82
2022/08/26 04:28:27;;;;;;;5.70;4.30;;;;;;;20.48;nan;100139.78;4962678;28;20051;-82
2022/08/26 04:30:53;;;;;;;5.55;3.90;;;;;;;20.47;nan;100132.75;4969960;28;20034;-82
2022/08/26 04:33:18;;;;;;;5.50;4.30;;;;;;;20.50;nan;100139.56;4968911;28;20388;-82
2022/08/26 04:35:44;;;;;;;5.63;4.03;;;;;;;20.50;nan;100135.00;4970656;28;20047;-82
2022/08/26 04:38:10;;;;;;;5.55;4.43;;;;;;;20.48;nan;100142.47;4969738;28;20035;-82
2022/08/26 04:40:35;;;;;;;7.00;4.80;;;;;;;20.35;nan;100139.94;4961295;28;20042;-82
2022/08/26 04:43:01;;;;;;;7.10;5.28;;;;;;;20.27;nan;100143.75;4959805;28;20126;-82
2022/08/26 04:45:27;;;;;;;5.97;4.32;;;;;;;20.26;nan;100138.59;4969988;28;20051;-82
2022/08/26 04:47:55;;;;;;;5.50;4.72;;;;;;;20.27;nan;100132.19;4965951;28;20038;-82
2022/08/26 04:50:22;;;;;;;5.85;4.10;;;;;;;20.27;nan;100129.50;4965440;28;20069;-82
2022/08/26 04:52:47;;;;;;;4.88;4.35;;;;;;;20.22;nan;100135.56;4969873;28;20640;-82
2022/08/26 04:55:12;;;;;;;6.30;5.00;;;;;;;20.15;nan;100146.38;4966227;28;20035;-82
2022/08/26 04:57:38;;;;;;;7.43;4.85;;;;;;;20.12;nan;100146.81;4962317;28;20512;-82
2022/08/26 05:00:05;;;;;;;4.90;4.03;;;;;;;20.14;nan;100151.94;4963763;28;20036;-82
2022/08/26 05:02:31;;;;;;;6.43;4.18;;;;;;;20.14;nan;100155.47;4959680;28;20291;-82
2022/08/26 05:04:56;;;;;;;6.15;4.60;;;;;;;20.14;nan;100157.31;4967493;28;20519;-82
2022/08/26 05:07:21;;;;;;;5.10;4.30;;;;;;;20.15;nan;100151.75;4969049;28;20091;-82
2022/08/26 05:09:47;;;;;;;5.30;3.90;;;;;;;20.19;nan;100149.44;4964198;28;20036;-82
2022/08/26 05:12:12;;;;;;;4.35;3.95;;;;;;;20.24;nan;100152.28;4951214;28;20038;-82
2022/08/26 05:14:38;;;;;;;4.75;4.00;;;;;;;20.29;nan;100157.78;4955907;28;20042;-82
2022/08/26 05:17:03;;;;;;;4.25;3.70;;;;;;;20.36;nan;100158.53;4963422;28;20031;-82
2022/08/26 05:19:29;;;;;;;4.10;3.40;;;;;;;20.47;nan;100164.16;4958678;28;20031;-82
2022/08/26 05:21:54;;;;;;;4.35;3.40;;;;;;;20.56;nan;100154.78;4957055;28;20074;-82
2022/08/26 05:24:19;;;;;;;4.07;3.13;;;;;;;20.68;nan;100152.97;4961081;28;20032;-82
2022/08/26 05:26:46;;;;;;;4.10;3.28;;;;;;;20.80;nan;100155.72;4958895;28;20035;-82
2022/08/26 05:29:11;;;;;;;5.80;4.40;;;;;;;20.89;nan;100153.53;4959554;28;20126;-82
2022/08/26 05:31:37;;;;;;;5.63;3.80;;;;;;;20.97;nan;100155.88;4955622;28;20059;-82
2022/08/26 05:34:03;;;;;;;5.25;4.43;;;;;;;20.99;nan;100161.84;4961907;28;20053;-82
2022/08/26 05:36:30;;;;;;;5.30;4.25;;;;;;;21.10;nan;100171.00;4969216;28;20035;-82
2022/08/26 05:38:56;;;;;;;5.65;3.88;;;;;;;21.24;nan;100164.38;4960692;28;20046;-82
2022/08/26 05:41:31;;;;;;;4.40;3.75;;;;;;;21.34;nan;100155.75;4968010;28;20034;-82
2022/08/26 05:43:58;;;;;;;5.32;4.70;;;;;;;21.44;nan;100166.78;4961843;28;20065;-82
2022/08/26 05:46:25;;;;;;;6.60;5.10;;;;;;;21.51;nan;100163.97;4967925;28;20034;-82
2022/08/26 05:48:51;;;;;;;7.72;5.15;;;;;;;21.57;nan;100176.47;4968392;28;20037;-83
2022/08/26 05:51:17;;;;;;;5.65;4.82;;;;;;;21.66;nan;100160.81;4961640;28;20038;-82
2022/08/26 05:53:42;;;;;;;6.85;5.05;;;;;;;21.78;nan;100175.91;4970348;28;20632;-82
2022/08/26 05:56:09;;;;;;;5.47;4.25;;;;;;;21.93;nan;100183.53;4959315;28;20037;-82
2022/08/26 05:58:37;;;;;;;5.72;4.32;;;;;;;22.09;nan;100170.38;5028403;28;20557;-82
2022/08/26 06:01:07;;;;;;;4.57;3.83;;;;;;;22.18;nan;100175.16;4963552;28;20035;-82
2022/08/26 06:03:39;;;;;;;5.53;4.20;;;;;;;22.19;nan;100173.28;4969459;28;20123;-82
2022/08/26 06:06:11;;;;;;;4.45;3.92;;;;;;;22.12;nan;100177.97;4981302;28;20039;-82
2022/08/26 06:08:37;;;;;;;4.93;3.97;;;;;;;21.99;nan;100177.19;4961768;28;20039;-82
2022/08/26 06:11:06;;;;;;;5.22;4.28;;;;;;;21.90;nan;100180.47;4967827;28;20558;-82
2022/08/26 06:13:32;;;;;;;7.07;5.63;;;;;;;21.77;nan;100187.72;4967782;28;20066;-83
2022/08/26 06:16:01;;;;;;;6.55;5.40;;;;;;;21.66;nan;100183.16;4966758;28;20088;-83
2022/08/26 06:18:35;;;;;;;7.70;5.53;;;;;;;21.56;nan;100197.19;4969029;28;20104;-82
2022/08/26 06:21:10;;;;;;;7.38;5.43;;;;;;;21.51;nan;100207.84;4959935;28;20054;-82
2022/08/26 06:26:19;;;;;;;10.57;7.10;;;;;;;21.31;nan;100208.13;4957838;28;20113;-82
2022/08/26 06:28:44;;;;;;;8.13;6.07;;;;;;;21.34;nan;100201.47;4950332;28;20126;-82
2022/08/26 06:31:10;;;;;;;9.85;6.03;;;;;;;21.41;nan;100197.63;4950905;28;20110;-82
2022/08/26 06:33:35;;;;;;;10.55;6.35;;;;;;;21.43;nan;100202.81;4956421;28;20105;-83
2022/08/26 06:36:01;;;;;;;8.23;5.65;;;;;;;21.51;nan;100207.84;4962067;28;20053;-82
2022/08/26 06:38:27;;;;;;;7.68;5.30;;;;;;;21.59;nan;100209.34;4960372;28;20109;-82
2022/08/26 06:40:53;;;;;;;8.43;5.22;;;;;;;21.62;nan;100216.97;4957743;28;20121;-82
2022/08/26 06:43:22;;;;;;;7.32;5.90;;;;;;;21.61;nan;100216.16;4968482;28;20183;-83
2022/08/26 06:45:48;;;;;;;7.93;5.78;;;;;;;21.61;nan;100223.41;4979149;28;20043;-82
2022/08/26 06:48:19;;;;;;;9.68;5.85;;;;;;;21.66;nan;100222.72;4968906;28;20054;-82
2022/08/26 06:50:45;;;;;;;6.80;5.88;;;;;;;21.73;nan;100221.53;4967532;28;20562;-83
2022/08/26 06:53:12;;;;;;;7.78;6.30;;;;;;;21.81;nan;100213.13;4963001;28;20032;-83
2022/08/26 06:55:45;;;;;;;5.53;4.68;;;;;;;21.96;nan;100214.53;4968625;28;20468;-83
2022/08/26 06:58:13;;;;;;;6.07;4.40;;;;;;;22.19;nan;100213.69;4960254;28;20035;-82
2022/08/26 07:00:39;;;;;;;8.35;4.93;;;;;;;22.35;nan;100212.19;4967160;28;20074;-83
2022/08/26 07:03:05;;;;;;;7.18;4.93;;;;;;;22.59;nan;100212.94;4962941;28;20086;-83
2022/08/26 07:05:32;;;;;;;5.60;4.45;;;;;;;23.01;nan;100208.13;4970164;28;20102;-83
2022/08/26 07:07:58;;;;;;;5.63;3.97;;;;;;;23.83;nan;100217.59;4968504;28;20184;-83
2022/08/26 07:10:24;;;;;;;8.20;5.40;;;;;;;24.56;nan;100214.84;4966193;28;20496;-83
2022/08/26 07:12:50;;;;;;;9.98;7.15;;;;;;;24.96;nan;100209.09;4964423;28;20066;-83
2022/08/26 07:15:16;;;;;;;8.60;5.90;;;;;;;25.37;nan;100217.59;4961087;28;20649;-83
2022/08/26 07:17:41;;;;;;;9.07;5.82;;;;;;;25.71;nan;100219.22;4967585;28;20039;-84
2022/08/26 07:20:08;;;;;;;7.88;6.28;;;;;;;25.60;nan;100219.16;4987847;28;20094;-83
2022/08/26 07:22:35;;;;;;;8.05;5.45;;;;;;;26.24;nan;100223.69;4971301;28;20193;-83
2022/08/26 07:25:01;;;;;;;9.55;7.93;;;;;;;26.25;nan;100219.88;4967721;28;20038;-83
2022/08/26 07:27:27;;;;;;;6.75;5.63;;;;;;;26.35;nan;100223.72;4966856;28;20576;-83
2022/08/26 07:29:56;;;;;;;7.50;4.87;;;;;;;26.70;nan;100228.50;4968883;28;20126;-83
2022/08/26 07:32:21;;;;;;;9.45;5.93;;;;;;;27.09;nan;100226.16;4966339;28;20340;-83
2022/08/26 07:34:47;;;;;;;5.55;4.78;;;;;;;27.04;nan;100231.56;4970552;28;20050;-83
2022/08/26 07:37:13;;;;;;;6.78;5.00;;;;;;;26.99;nan;100226.13;4967935;28;20366;-82
2022/08/26 07:39:40;;;;;;;6.47;4.93;;;;;;;26.93;nan;100227.19;4965458;28;20397;-83
2022/08/26 07:42:07;;;;;;;5.72;4.10;;;;;;;27.04;nan;100228.84;4969026;28;20031;-82
2022/08/26 07:44:32;;;;;;;6.53;4.60;;;;;;;27.20;nan;100228.94;4970409;28;20828;-83
2022/08/26 07:46:58;;;;;;;5.28;4.10;;;;;;;27.39;nan;100231.91;4968125;28;20128;-83
2022/08/26 07:49:25;;;;;;;5.60;4.38;;;;;;;27.77;nan;100235.16;4961940;28;20492;-83
2022/08/26 07:51:51;;;;;;;6.28;5.07;;;;;;;28.44;nan;100231.22;4963679;28;20054;-83
2022/08/26 07:54:16;;;;;;;7.47;5.53;;;;;;;28.82;nan;100231.63;4968569;28;20035;-83
2022/08/26 07:56:43;;;;;;;7.20;5.20;;;;;;;28.90;nan;100230.22;4968315;28;20069;-83
2022/08/26 07:59:08;;;;;;;6.22;4.35;;;;;;;29.00;nan;100236.41;4968805;28;20589;-83
2022/08/26 08:01:34;;;;;;;6.90;4.43;;;;;;;28.98;nan;100235.91;4969881;28;20130;-83
2022/08/26 08:04:00;;;;;;;6.78;4.55;;;;;;;28.96;nan;100235.34;4969291;28;20388;-83
2022/08/26 08:06:25;;;;;;;5.40;4.10;;;;;;;29.06;nan;100233.69;4966961;28;20062;-83
2022/08/26 08:08:51;;;;;;;6.75;5.35;;;;;;;28.80;nan;100226.47;4963557;28;20279;-83
2022/08/26 08:11:20;;;;;;;6.97;4.55;;;;;;;28.80;nan;100229.19;4959179;28;20035;-84
2022/08/26 08:13:46;;;;;;;6.78;5.80;;;;;;;28.67;nan;100218.91;4988969;28;20117;-82
2022/08/26 08:16:12;;;;;;;7.03;5.05;;;;;;;28.64;nan;100229.53;4969548;28;20039;-83
2022/08/26 08:18:37;;;;;;;5.63;4.38;;;;;;;28.99;nan;100221.19;4966023;28;20112;-82
2022/08/26 08:21:03;;;;;;;5.18;4.13;;;;;;;29.18;nan;100226.81;4968712;28;20035;-83
2022/08/26 08:23:30;;;;;;;5.53;4.32;;;;;;;29.47;nan;100219.78;4962527;28;20121;-82
2022/08/26 08:26:07;;;;;;;10.05;5.80;;;;;;;29.73;nan;100223.13;4967124;28;20119;-83
2022/08/26 08:28:33;;;;;;;6.70;5.15;;;;;;;29.55;nan;100222.69;4956938;28;20049;-83
2022/08/26 08:31:00;;;;;;;5.90;5.03;;;;;;;29.43;nan;100222.25;4957697;28;20032;-84
2022/08/26 08:33:28;;;;;;;6.15;4.70;;;;;;;29.69;nan;100232.97;4969225;28;20103;-83
2022/08/26 08:35:55;;;;;;;8.02;5.60;;;;;;;29.82;nan;100233.13;4969432;28;20031;-83
2022/08/26 08:38:20;;;;;;;7.22;4.85;;;;;;;30.02;nan;100225.81;4966087;28;20033;-83
2022/08/26 08:40:46;;;;;;;8.15;5.93;;;;;;;29.75;nan;100226.38;4965806;28;20114;-83
2022/08/26 08:43:25;;;;;;;6.55;5.10;;;;;;;29.81;nan;100223.28;4959698;28;20126;-83
2022/08/26 08:45:56;;;;;;;5.78;4.55;;;;;;;29.89;nan;100221.88;4968557;28;20036;-83
2022/08/26 08:48:31;;;;;;;5.43;4.57;;;;;;;29.98;nan;100216.59;4982939;28;20026;-83
2022/08/26 08:51:15;;;;;;;6.53;4.72;;;;;;;29.76;nan;100220.63;4967335;28;20030;-83
2022/08/26 08:53:44;;;;;;;6.10;5.47;;;;;;;29.46;nan;100220.84;4965463;28;20436;-83
2022/08/26 08:56:30;;;;;;;5.72;4.35;;;;;;;29.45;nan;100222.78;4966356;28;20034;-84
2022/08/26 08:59:18;;;;;;;6.85;4.07;;;;;;;29.89;nan;100237.41;4964054;28;20488;-83
2022/08/26 09:02:09;;;;;;;5.47;4.20;;;;;;;30.21;nan;100225.88;4963245;28;20588;-83
2022/08/26 09:05:16;;;;;;;4.65;3.42;;;;;;;30.43;nan;100230.84;4961756;28;20035;-84
2022/08/26 09:07:54;;;;;;;7.60;6.38;;;;;;;30.14;nan;100223.50;4960639;28;20062;-84
2022/08/26 09:10:29;;;;;;;7.53;5.30;;;;;;;29.93;nan;100224.81;4964527;28;20038;-84
2022/08/26 09:12:56;;;;;;;5.57;4.32;;;;;;;30.26;nan;100225.84;4959677;28;20043;-84
2022/08/26 09:15:41;;;;;;;6.78;5.65;;;;;;;30.90;nan;100219.03;4969653;28;20059;-84
2022/08/26 09:18:22;;;;;;;5.55;4.18;;;;;;;31.25;nan;100218.78;4959966;28;20059;-84
2022/08/26 09:21:03;;;;;;;5.45;4.30;;;;;;;31.43;nan;100211.72;4965407;28;20069;-84
2022/08/26 09:23:34;;;;;;;8.18;4.13;;;;;;;31.62;nan;100214.38;4966577;28;20077;-84
2022/08/26 09:26:03;;;;;;;5.70;4.15;;;;;;;31.73;nan;100207.63;4968865;28;20492;-84
2022/08/26 09:28:29;;;;;;;5.18;4.03;;;;;;;32.20;nan;100216.59;4965758;28;20038;-84
2022/08/26 09:31:23;;;;;;;6.57;4.10;;;;;;;33.24;nan;100213.28;4968895;28;20039;-84
2022/08/26 09:34:03;;;;;;;6.57;4.63;;;;;;;34.53;nan;100212.31;4959898;28;20040;-84
2022/08/26 09:36:38;;;;;;;6.13;3.80;;;;;;;35.77;nan;100211.97;4962462;28;20059;-84
2022/08/26 09:39:24;;;;;;;7.72;4.32;;;;;;;35.91;nan;100215.31;4958107;28;20068;-84
2022/08/26 09:42:24;;;;;;;7.30;4.70;;;;;;;35.81;nan;100226.69;4967417;28;20027;-84
2022/08/26 09:44:58;;;;;;;5.90;4.45;;;;;;;36.04;nan;100169.41;4964903;28;20484;-84
2022/08/26 09:47:28;;;;;;;5.20;4.15;;;;;;;35.86;nan;100136.50;4964148;28;20055;-84
2022/08/26 09:50:03;;;;;;;;;;;;;;;35.22;nan;100128.31;4959488;28;20070;-84
2022/08/26 09:52:28;;;;;;;7.18;3.70;;;;;;;35.08;nan;100167.72;4964466;28;19922;-84
2022/08/26 09:55:19;;;;;;;4.30;3.80;;;;;;;35.05;nan;100110.69;4955338;28;20107;-85
2022/08/26 09:57:53;;;;;;;5.72;4.13;;;;;;;34.97;nan;100095.03;4965420;28;20097;-84
2022/08/26 10:00:36;;;;;;;4.93;3.45;;;;;;;35.24;nan;100093.84;4961291;28;20040;-84
2022/08/26 10:03:08;;;;;;;5.60;3.85;;;;;;;35.66;nan;100076.72;4966655;28;20046;-84
2022/08/26 10:05:53;;;;;;;9.07;4.13;;;;;;;35.86;nan;100083.44;4959598;28;20035;-84
2022/08/26 10:08:37;;;;;;;6.45;3.80;;;;;;;36.07;nan;100086.22;4963544;28;20039;-84
2022/08/26 10:11:14;;;;;;;7.60;3.97;;;;;;;35.33;nan;100085.59;4960419;28;20043;-84
2022/08/26 10:13:47;;;;;;;4.45;3.75;;;;;;;35.38;nan;100074.41;4961420;28;20290;-84
2022/08/26 10:16:21;;;;;;;4.47;3.88;;;;;;;36.62;nan;100090.69;4963109;28;20149;-85
2022/08/26 10:18:52;;;;;;;5.35;3.30;;;;;;;;;;4962634;28;20132;-86
2022/08/26 10:21:44;;;;;;;4.60;3.20;;;;;;;37.60;nan;100062.56;4963519;28;20041;-85
2022/08/26 10:24:17;;;;;;;6.32;4.47;;;;;;;37.12;nan;100059.41;4962277;28;20085;-85
2022/08/26 10:27:06;;;;;;;5.35;4.10;;;;;;;37.51;nan;100045.28;4949819;28;20505;-86
2022/08/26 10:29:43;;;;;;;7.25;4.47;;;;;;;37.88;nan;100050.78;4962418;28;20500;-85
2022/08/26 10:32:37;;;;;;;5.13;4.25;;;;;;;37.21;nan;100051.03;4966428;28;21426;-85
2022/08/26 10:35:05;;;;;;;6.72;4.43;;;;;;;36.20;nan;100056.84;4963246;28;20042;-85
2022/08/26 10:37:38;;;;;;;4.90;3.78;;;;;;;;;;4964762;28;20503;-85
2022/08/26 10:40:12;;;;;;;5.75;4.30;;;;;;;34.40;nan;100098.75;4959185;28;20051;-83
2022/08/26 10:42:47;;;;;;;5.75;3.65;;;;;;;34.07;nan;100035.25;4960975;28;20039;-84
2022/08/26 10:45:18;;;;;;;4.80;3.58;;;;;;;34.22;nan;100058.72;4963452;28;20066;-85
2022/08/26 10:47:53;;;;;;;3.75;3.33;;;;;;;34.18;nan;100047.56;4965634;28;20046;-84
2022/08/26 10:50:19;;;;;;;4.20;3.50;;;;;;;34.01;nan;100048.31;4961141;28;20027;-84
2022/08/26 10:53:06;;;;;;;3.90;3.50;;;;;;;33.74;nan;100056.81;4957586;28;20038;-84
2022/08/26 10:55:37;;;;;;;6.47;3.92;;;;;;;34.10;nan;100023.66;4967600;28;20043;-84
2022/08/26 10:58:10;;;;;;;4.88;3.05;;;;;;;;;;4969340;28;20035;-85
2022/08/26 11:03:57;;;;;;;4.20;2.90;;;;;;;40.53;nan;100035.41;4963063;28;21197;-84
2022/08/26 11:06:28;;;;;;;3.20;2.20;;;;;;;42.37;nan;100051.00;4967141;28;20500;-85
2022/08/26 11:09:03;;;;;;;4.28;2.95;;;;;;;43.58;nan;100034.66;4962468;28;20042;-85
2022/08/26 11:11:40;;;;;;;;;;;;;;;43.59;nan;100086.38;4966432;28;20043;-84
2022/08/26 11:14:09;;;;;;;3.72;2.50;;;;;;;44.31;nan;100104.34;4963118;28;19929;-85
2022/08/26 11:16:37;;;;;;;4.32;2.80;;;;;;;42.70;nan;100105.00;4965054;28;20043;-85
2022/08/26 11:19:04;;;;;;;3.05;2.60;;;;;;;41.14;nan;100098.38;4964884;28;20039;-85
2022/08/26 11:22:01;;;;;;;4.10;2.80;;;;;;;41.26;nan;100097.34;4968941;28;20045;-84
2022/08/26 11:24:39;;;;;;;3.67;2.42;;;;;;;43.79;nan;100105.63;4965769;28;20054;-84
2022/08/26 11:27:07;;;;;;;5.18;2.83;;;;;;;45.17;nan;100095.41;4963978;28;20039;-85
2022/08/26 11:29:59;;;;;;;3.03;2.60;;;;;;;46.35;nan;100094.47;4966909;28;20119;-85
2022/08/26 11:32:51;;;;;;;4.50;2.95;;;;;;;47.10;nan;100085.63;4966466;28;20046;-85
2022/08/26 11:35:16;;;;;;;3.70;3.28;;;;;;;47.26;nan;100085.09;4966967;28;21715;-85
2022/08/26 11:37:48;;;;;;;4.65;2.90;;;;;;;47.29;nan;100081.44;4964106;28;20043;-85
2022/08/26 11:40:19;;;;;;;3.72;2.80;;;;;;;46.49;nan;100076.81;4962372;28;20526;-85
2022/08/26 11:42:53;;;;;;;;;;;;;;;44.67;nan;100065.44;4966104;28;20110;-85
2022/08/26 11:45:26;;;;;;;3.65;2.70;;;;;;;43.20;nan;100067.41;4961639;28;19925;-84
2022/08/26 11:47:53;;;;;;;3.55;2.50;;;;;;;43.67;nan;100060.22;4965344;28;20050;-85
2022/08/26 11:50:24;;;;;;;4.45;2.83;;;;;;;44.26;nan;100067.66;4965858;28;20504;-84
2022/08/26 11:52:53;;;;;;;5.38;3.28;;;;;;;42.98;nan;100058.03;4967304;28;20084;-86
2022/08/26 11:55:19;;;;;;;3.75;3.00;;;;;;;41.23;nan;100061.25;4968877;28;20066;-85
2022/08/26 11:57:49;;;;;;;3.60;2.90;;;;;;;42.26;nan;100064.75;4963536;28;20575;-85
2022/08/26 12:00:23;;;;;;;;;;;;;;;42.50;nan;100065.47;4961571;28;20039;-84
2022/08/26 12:02:49;;;;;;;5.43;3.10;;;;;;;42.83;nan;100056.28;4964286;28;19961;-84